الصفحة الرئيسية
METAR-TAF:

METAR-TAF

مطار :

Pago Pago, جزر الولايات المتحدة البعيدة الصغيرة

دائرة عرض: 14-20S, خط طول: 170-43W, ارتفاع: 3 متر

مراقبة الطقس الحالي

تاريخ ووقت الإصدار 25 دقيقة قبل الساعة 19:50UTC
ريح 5 عقدةمن اتجاهات متغيرة
درجة الحرارة 30°درجة مئوية
الرطوبة 84%
ضغط 1011 hPa
الرؤية: 19.3 كم
غيوم متفرقة على ارتفاع 1600 قدم, مزن ركامية عمودية.
غيوم متفرقة على ارتفاع 4000 قدم
غيوم مفككة على ارتفاع 10000 قدم

METAR: NSTU 161950Z VRB05KT 12SM SCT016TCU SCT040 BKN100 30/27 A2985 RMK TCU E-S AND NW-N SLP110 T03000265

زمن: 09:15 (20:15 UTC)

توقعات

تاريخ ووقت الإصدار 2ساعات و 55 دقيقة قبل الساعة 17:20UTC
التوقعات صالحة من16 الساعة 18 UTC إلى 17 الساعة 18 UTC
ريح 10 عقدة من الشرق/الجنوب الشرقي
الرؤية: 10 كم
غيوم متفرقة على ارتفاع 1500 قدم
غيوم مفككة على ارتفاع 4000 قدم
زخات في الجوار,

TAF: NSTU 161720Z 1618/1718 11010KT P6SM VCSH SCT015 BKN040

أرصاد الطقس والتوقعات من أكثر من 4000 مطار (تقارير الطقس للمطار METAR والتنبؤ بالطقس بالمطارTAF).

المحطات المتاحة هي النقط الصفراء والحمراء على الخريطة.

حرك المؤشر فوق النقطة لمعرفة اسم المحطة.

ثم انقر لمعرفة أرصاد وتوقعات الطقس.

لتغيير الخارطة: اضغط على الأزرار الخضراء مع رمز الصليب الأسود للتكبير. على الزر الأخضر مع شرطة للتصغير، أو على الأسهم الخضراء للخرائط المجاورة.


METAR-TAF: